Time;durP1;ratioP1;P1;durP2;ratioP2;P2;SDS_P1;SDS_P2;PMS_P1;PMS_P2;Temp;Humidity;BMP_temperature;BMP_pressure;BME280_temperature;BME280_humidity;BME280_pressure;Samples;Min_cycle;Max_cycle;Signal;HPM_P1;HPM_P2
2023/06/30 00:00:12;;;;;;;3.60;2.95;;;;;;;;;;10248574;28;20077;-59
2023/06/30 00:05:15;;;;;;;5.25;3.08;;;;;;;;;;10253862;28;20073;-59
2023/06/30 00:10:13;;;;;;;3.67;2.88;;;;;;;;;;10253252;28;20081;-59
2023/06/30 00:15:13;;;;;;;4.10;2.95;;;;;;;;;;10253663;28;20080;-59
2023/06/30 00:20:12;;;;;;;3.92;3.00;;;;;;;;;;10253565;28;20069;-60
2023/06/30 00:25:10;;;;;;;3.75;3.08;;;;;;;;;;10252867;28;20084;-60
2023/06/30 00:30:13;;;;;;;5.65;3.70;;;;;;;;;;10252329;28;20083;-59
2023/06/30 00:35:11;;;;;;;6.53;3.38;;;;;;;;;;10252343;28;20077;-58
2023/06/30 00:40:13;;;;;;;4.38;3.28;;;;;;;;;;10250946;28;20069;-59
2023/06/30 00:45:14;;;;;;;5.20;3.45;;;;;;;;;;10250273;28;20078;-58
2023/06/30 00:50:12;;;;;;;4.35;3.25;;;;;;;;;;10252787;28;20861;-59
2023/06/30 00:55:12;;;;;;;10.55;4.22;;;;;;;;;;10253266;28;20100;-59
2023/06/30 01:00:11;;;;;;;5.20;3.17;;;;;;;;;;10251683;28;20064;-59
2023/06/30 01:05:15;;;;;;;4.72;3.10;;;;;;;;;;10250251;28;20073;-60
2023/06/30 01:10:15;;;;;;;3.67;3.37;;;;;;;;;;10250951;28;20069;-59
2023/06/30 01:15:14;;;;;;;3.95;3.60;;;;;;;;;;10250091;28;20073;-59
2023/06/30 01:20:14;;;;;;;4.38;3.33;;;;;;;;;;10248676;28;20084;-59
2023/06/30 01:25:14;;;;;;;4.43;3.28;;;;;;;;;;10256437;28;20048;-60
2023/06/30 01:30:13;;;;;;;3.88;3.47;;;;;;;;;;10251577;28;20081;-59
2023/06/30 01:35:12;;;;;;;7.95;3.95;;;;;;;;;;10249205;28;20111;-59
2023/06/30 01:40:12;;;;;;;3.83;3.10;;;;;;;;;;10249313;28;20068;-59
2023/06/30 01:45:11;;;;;;;5.35;3.13;;;;;;;;;;10247649;28;20084;-59
2023/06/30 01:50:09;;;;;;;5.15;3.88;;;;;;;;;;10250254;28;20494;-58
2023/06/30 01:55:08;;;;;;;3.40;3.10;;;;;;;;;;10251687;28;20417;-59
2023/06/30 02:00:08;;;;;;;6.03;3.40;;;;;;;;;;10249100;28;20069;-59
2023/06/30 02:05:09;;;;;;;5.57;3.60;;;;;;;;;;10255730;28;20525;-59
2023/06/30 02:10:08;;;;;;;3.42;3.05;;;;;;;;;;10248705;28;20084;-59
2023/06/30 02:15:09;;;;;;;4.35;3.58;;;;;;;;;;10247418;28;20073;-59
2023/06/30 02:20:08;;;;;;;12.10;3.60;;;;;;;;;;10248618;28;20072;-59
2023/06/30 02:25:06;;;;;;;3.92;3.53;;;;;;;;;;10249275;28;20103;-59
2023/06/30 02:30:06;;;;;;;5.80;3.97;;;;;;;;;;10249722;28;20561;-60
2023/06/30 02:35:08;;;;;;;8.20;3.90;;;;;;;;;;10248000;28;20052;-59
2023/06/30 02:40:08;;;;;;;4.45;3.75;;;;;;;;;;10247703;28;20073;-59
2023/06/30 02:45:07;;;;;;;8.43;3.83;;;;;;;;;;10247849;28;20091;-59
2023/06/30 02:50:07;;;;;;;6.78;4.03;;;;;;;;;;10248893;28;20092;-59
2023/06/30 02:55:08;;;;;;;4.20;3.40;;;;;;;;;;10247030;28;20412;-59
2023/06/30 03:00:08;;;;;;;4.50;3.55;;;;;;;;;;10247984;28;20056;-58
2023/06/30 03:05:09;;;;;;;4.50;4.05;;;;;;;;;;10264006;28;20042;-59
2023/06/30 03:10:09;;;;;;;5.97;3.97;;;;;;;;;;10262035;28;20545;-60
2023/06/30 03:15:08;;;;;;;3.88;3.53;;;;;;;;;;10248614;28;20076;-60
2023/06/30 03:20:12;;;;;;;7.20;4.75;;;;;;;;;;10247274;28;20081;-59
2023/06/30 03:25:10;;;;;;;5.15;4.65;;;;;;;;;;10249486;28;20538;-59
2023/06/30 03:30:09;;;;;;;5.93;4.35;;;;;;;;;;10254260;28;20068;-58
2023/06/30 03:35:14;;;;;;;5.20;4.05;;;;;;;;;;10254421;28;20087;-59
2023/06/30 03:40:13;;;;;;;5.53;4.20;;;;;;;;;;10253983;28;20469;-60
2023/06/30 03:45:12;;;;;;;5.45;4.50;;;;;;;;;;10260708;28;20053;-59
2023/06/30 03:50:10;;;;;;;6.15;4.18;;;;;;;;;;10257275;28;20057;-59
2023/06/30 03:55:10;;;;;;;7.82;4.57;;;;;;;;;;10255745;28;20084;-60
2023/06/30 04:00:11;;;;;;;7.55;4.40;;;;;;;;;;10253344;28;20107;-60
2023/06/30 04:05:09;;;;;;;5.95;4.20;;;;;;;;;;10252139;28;20088;-59
2023/06/30 04:10:08;;;;;;;6.38;4.30;;;;;;;;;;10252879;28;20071;-59
2023/06/30 04:15:10;;;;;;;5.10;4.03;;;;;;;;;;10253763;28;20513;-59
2023/06/30 04:20:09;;;;;;;8.65;4.18;;;;;;;;;;10252185;28;20075;-59
2023/06/30 04:25:08;;;;;;;6.18;4.57;;;;;;;;;;10249712;28;20077;-59
2023/06/30 04:30:08;;;;;;;7.20;4.20;;;;;;;;;;10253455;28;20080;-59
2023/06/30 04:35:07;;;;;;;5.75;4.57;;;;;;;;;;10250326;28;20512;-59
2023/06/30 04:40:07;;;;;;;5.22;4.10;;;;;;;;;;10251750;28;20514;-59
2023/06/30 04:45:06;;;;;;;8.07;5.15;;;;;;;;;;10253047;28;20076;-59
2023/06/30 04:50:06;;;;;;;6.40;4.80;;;;;;;;;;10250464;28;20525;-59
2023/06/30 04:55:05;;;;;;;7.47;5.50;;;;;;;;;;10252395;28;20088;-59
2023/06/30 05:00:03;;;;;;;7.25;6.38;;;;;;;;;;10253091;28;20084;-57
2023/06/30 05:05:01;;;;;;;9.75;6.38;;;;;;;;;;10250674;28;20077;-57
2023/06/30 05:10:01;;;;;;;7.18;5.07;;;;;;;;;;10251328;28;20499;-59
2023/06/30 05:14:59;;;;;;;9.25;5.15;;;;;;;;;;10249889;28;20076;-59
2023/06/30 05:19:59;;;;;;;7.55;5.90;;;;;;;;;;10251517;28;20065;-59
2023/06/30 05:24:57;;;;;;;6.70;5.88;;;;;;;;;;10248577;28;20076;-56
2023/06/30 05:29:57;;;;;;;6.85;5.40;;;;;;;;;;10248022;28;20075;-59
2023/06/30 05:34:55;;;;;;;7.68;5.88;;;;;;;;;;10249331;28;20556;-59
2023/06/30 05:39:53;;;;;;;16.00;14.27;;;;;;;;;;10250305;28;20076;-59
2023/06/30 05:44:51;;;;;;;8.75;5.45;;;;;;;;;;10248677;28;20446;-59
2023/06/30 05:49:51;;;;;;;9.85;5.82;;;;;;;;;;10249290;28;20091;-59
2023/06/30 05:54:49;;;;;;;6.07;5.47;;;;;;;;;;10250641;28;20144;-59
2023/06/30 05:59:47;;;;;;;8.82;6.68;;;;;;;;;;10250302;28;20065;-59
2023/06/30 06:04:45;;;;;;;13.57;5.80;;;;;;;;;;10246996;28;20069;-59
2023/06/30 06:09:45;;;;;;;6.65;4.57;;;;;;;;;;10248040;28;20095;-60
2023/06/30 06:14:43;;;;;;;8.05;5.63;;;;;;;;;;10249878;28;20073;-59
2023/06/30 06:19:42;;;;;;;6.05;5.32;;;;;;;;;;10249493;28;20075;-59
2023/06/30 06:24:40;;;;;;;5.93;5.05;;;;;;;;;;10247644;28;20076;-60
2023/06/30 06:29:39;;;;;;;5.82;5.30;;;;;;;;;;10246985;28;20469;-58
2023/06/30 06:34:38;;;;;;;5.68;4.72;;;;;;;;;;10248442;28;20525;-58
2023/06/30 06:39:36;;;;;;;7.72;5.15;;;;;;;;;;10245930;28;20257;-59
2023/06/30 06:44:35;;;;;;;9.48;6.30;;;;;;;;;;10248479;28;20079;-58
2023/06/30 06:49:36;;;;;;;6.80;4.82;;;;;;;;;;10250475;28;20072;-59
2023/06/30 06:54:34;;;;;;;16.30;9.73;;;;;;;;;;10243038;28;20072;-59
2023/06/30 06:59:33;;;;;;;5.65;5.07;;;;;;;;;;10249809;28;20124;-60
2023/06/30 07:04:31;;;;;;;4.53;4.07;;;;;;;;;;10252172;28;20069;-59
2023/06/30 07:09:30;;;;;;;5.32;4.93;;;;;;;;;;10262623;28;20108;-59
2023/06/30 07:14:28;;;;;;;11.32;5.22;;;;;;;;;;10259934;28;20068;-59
2023/06/30 07:19:27;;;;;;;6.78;4.82;;;;;;;;;;10265413;28;20080;-60
2023/06/30 07:24:25;;;;;;;5.13;4.63;;;;;;;;;;10266870;28;20075;-59
2023/06/30 07:29:24;;;;;;;7.78;3.67;;;;;;;;;;10262871;28;20091;-59
2023/06/30 07:34:23;;;;;;;3.65;3.35;;;;;;;;;;10258770;28;20076;-59
2023/06/30 07:39:21;;;;;;;3.75;3.45;;;;;;;;;;10256050;28;20064;-59
2023/06/30 07:44:20;;;;;;;6.78;6.18;;;;;;;;;;10259214;28;20076;-59
2023/06/30 07:49:21;;;;;;;4.60;4.03;;;;;;;;;;10264669;28;20076;-58
2023/06/30 07:54:20;;;;;;;5.57;3.92;;;;;;;;;;10258764;28;20537;-59
2023/06/30 07:59:21;;;;;;;6.32;4.00;;;;;;;;;;10262420;28;20072;-61
2023/06/30 08:04:21;;;;;;;4.28;3.88;;;;;;;;;;10267614;28;20076;-59
2023/06/30 08:09:20;;;;;;;5.88;4.22;;;;;;;;;;10254162;28;20064;-59
2023/06/30 08:14:18;;;;;;;4.47;3.80;;;;;;;;;;10252003;28;20076;-60
2023/06/30 08:19:16;;;;;;;4.15;3.30;;;;;;;;;;10260297;28;21179;-59
2023/06/30 08:24:36;;;;;;;6.82;3.58;;;;;;;;;;10250868;28;20073;-60
2023/06/30 08:29:34;;;;;;;5.55;3.28;;;;;;;;;;10251756;28;20076;-59
2023/06/30 08:34:32;;;;;;;3.83;3.40;;;;;;;;;;10245469;28;20073;-59
2023/06/30 08:39:31;;;;;;;3.22;3.03;;;;;;;;;;10249350;28;20071;-60
2023/06/30 08:44:32;;;;;;;3.55;2.83;;;;;;;;;;10249500;28;20072;-60
2023/06/30 08:49:31;;;;;;;5.20;3.17;;;;;;;;;;10251245;28;20081;-60
2023/06/30 08:54:31;;;;;;;5.32;2.70;;;;;;;;;;10251366;28;20506;-58
2023/06/30 08:59:31;;;;;;;3.22;2.60;;;;;;;;;;10257015;28;20080;-59
2023/06/30 09:04:29;;;;;;;4.15;2.70;;;;;;;;;;10251750;28;20077;-59
2023/06/30 09:09:28;;;;;;;2.78;2.58;;;;;;;;;;10250097;28;20073;-60
2023/06/30 09:14:33;;;;;;;2.85;2.50;;;;;;;;;;10251642;28;20084;-60
2023/06/30 09:19:33;;;;;;;2.72;2.53;;;;;;;;;;10253323;28;20044;-60
2023/06/30 09:24:32;;;;;;;6.85;2.75;;;;;;;;;;10254600;28;20089;-60
2023/06/30 09:29:33;;;;;;;4.45;2.70;;;;;;;;;;10250640;28;20079;-60
2023/06/30 09:34:32;;;;;;;3.70;2.80;;;;;;;;;;10251594;28;20095;-60
2023/06/30 09:39:30;;;;;;;4.72;2.67;;;;;;;;;;10250959;28;20076;-60
2023/06/30 09:44:40;;;;;;;3.38;2.83;;;;;;;;;;10246938;28;20491;-60
2023/06/30 09:49:43;;;;;;;4.35;2.30;;;;;;;;;;10251371;28;20087;-59
2023/06/30 09:54:41;;;;;;;3.03;2.78;;;;;;;;;;10249637;28;20065;-59
2023/06/30 09:59:43;;;;;;;4.22;2.55;;;;;;;;;;10248956;28;20140;-60
2023/06/30 10:04:43;;;;;;;3.33;2.25;;;;;;;;;;10251000;28;20272;-60
2023/06/30 10:09:42;;;;;;;2.72;2.40;;;;;;;;;;10249140;28;20068;-60
2023/06/30 10:14:44;;;;;;;2.65;2.33;;;;;;;;;;10244161;28;20069;-59
2023/06/30 10:19:44;;;;;;;2.60;2.35;;;;;;;;;;10249906;28;20080;-60
2023/06/30 10:24:43;;;;;;;2.10;1.90;;;;;;;;;;10243270;28;20489;-60
2023/06/30 10:29:42;;;;;;;4.72;2.40;;;;;;;;;;10250633;28;20068;-59
2023/06/30 10:34:40;;;;;;;2.75;2.00;;;;;;;;;;10251212;28;20065;-60
2023/06/30 10:39:39;;;;;;;2.88;2.00;;;;;;;;;;10256596;28;20462;-60
2023/06/30 10:44:38;;;;;;;3.28;1.95;;;;;;;;;;10259388;28;20076;-60
2023/06/30 10:49:37;;;;;;;2.58;1.90;;;;;;;;;;10252851;28;20084;-59
2023/06/30 10:54:40;;;;;;;2.40;1.83;;;;;;;;;;10255963;28;20081;-60
2023/06/30 10:59:39;;;;;;;4.00;2.07;;;;;;;;;;10256289;28;20068;-59
2023/06/30 11:04:38;;;;;;;2.92;1.90;;;;;;;;;;10255472;28;20080;-59
2023/06/30 11:09:55;;;;;;;2.72;2.05;;;;;;;;;;10257079;28;20073;-61
2023/06/30 11:14:55;;;;;;;3.63;1.75;;;;;;;;;;10255975;28;20072;-60
2023/06/30 11:20:10;;;;;;;4.78;2.92;;;;;;;;;;10255639;28;20068;-59
2023/06/30 11:25:11;;;;;;;5.28;1.83;;;;;;;;;;10263955;28;20073;-60
2023/06/30 11:30:11;;;;;;;2.63;1.70;;;;;;;;;;10255385;28;20113;-59
2023/06/30 11:35:12;;;;;;;2.15;1.90;;;;;;;;;;10254831;28;20080;-59
2023/06/30 11:40:10;;;;;;;2.03;1.83;;;;;;;;;;10253852;28;20089;-59
2023/06/30 11:45:16;;;;;;;2.75;1.83;;;;;;;;;;10254074;28;20083;-59
2023/06/30 11:50:15;;;;;;;2.10;1.83;;;;;;;;;;10254210;28;20077;-60
2023/06/30 11:55:16;;;;;;;3.35;1.52;;;;;;;;;;10255616;28;20081;-60
2023/06/30 12:00:17;;;;;;;1.60;1.50;;;;;;;;;;10254190;28;20068;-60
2023/06/30 12:05:28;;;;;;;2.40;1.73;;;;;;;;;;10261237;28;20085;-60
2023/06/30 12:10:37;;;;;;;2.30;2.10;;;;;;;;;;10253674;28;20536;-60
2023/06/30 12:15:41;;;;;;;3.25;1.90;;;;;;;;;;10252081;28;20496;-59
2023/06/30 12:20:40;;;;;;;4.82;1.98;;;;;;;;;;10252299;28;20073;-60
2023/06/30 12:25:38;;;;;;;4.03;1.75;;;;;;;;;;10253309;28;20071;-60
2023/06/30 12:30:38;;;;;;;3.47;1.90;;;;;;;;;;10251845;28;20077;-60
2023/06/30 12:35:38;;;;;;;1.75;1.42;;;;;;;;;;10251842;28;20075;-59
2023/06/30 12:40:38;;;;;;;3.53;1.83;;;;;;;;;;10251560;28;20068;-59
2023/06/30 12:45:36;;;;;;;2.13;1.92;;;;;;;;;;10253144;28;20083;-60
2023/06/30 12:50:34;;;;;;;2.10;1.90;;;;;;;;;;10251236;28;20073;-60
2023/06/30 12:55:34;;;;;;;5.68;1.70;;;;;;;;;;10251315;28;20148;-60
2023/06/30 13:00:32;;;;;;;4.40;1.83;;;;;;;;;;10252175;28;20057;-60
2023/06/30 13:05:30;;;;;;;3.90;1.98;;;;;;;;;;10250660;28;20057;-59
2023/06/30 13:10:29;;;;;;;1.98;1.80;;;;;;;;;;10250849;28;20068;-60
2023/06/30 13:15:29;;;;;;;4.68;1.52;;;;;;;;;;10251636;28;20080;-59
2023/06/30 13:20:27;;;;;;;1.65;1.55;;;;;;;;;;10249468;28;20072;-60
2023/06/30 13:25:25;;;;;;;2.45;1.58;;;;;;;;;;10250147;28;20080;-60
2023/06/30 13:30:23;;;;;;;2.72;1.55;;;;;;;;;;10250900;28;20102;-60
2023/06/30 13:35:26;;;;;;;3.00;1.60;;;;;;;;;;10250377;28;20141;-60
2023/06/30 13:40:24;;;;;;;2.25;1.30;;;;;;;;;;10250111;28;20079;-61
2023/06/30 13:45:22;;;;;;;2.47;2.28;;;;;;;;;;10250112;28;20072;-60
2023/06/30 13:50:21;;;;;;;2.60;1.73;;;;;;;;;;10249736;28;20084;-60
2023/06/30 13:55:20;;;;;;;4.93;1.80;;;;;;;;;;10250183;28;20322;-60
2023/06/30 14:00:19;;;;;;;2.55;1.73;;;;;;;;;;10249515;28;20068;-60
2023/06/30 14:05:17;;;;;;;3.60;1.73;;;;;;;;;;10247789;28;20314;-60
2023/06/30 14:10:16;;;;;;;4.63;2.30;;;;;;;;;;10247270;28;20100;-60
2023/06/30 14:15:16;;;;;;;2.30;1.90;;;;;;;;;;10249655;28;20111;-60
2023/06/30 14:20:16;;;;;;;4.03;2.63;;;;;;;;;;10248721;28;20076;-60
2023/06/30 14:25:20;;;;;;;2.05;1.85;;;;;;;;;;10248927;28;20073;-60
2023/06/30 14:30:18;;;;;;;;;;;;;;;;;;10250376;28;20399;-60
2023/06/30 14:35:17;;;;;;;1.50;1.40;;;;;;;;;;10247514;28;19960;-59
2023/06/30 14:40:16;;;;;;;1.98;1.75;;;;;;;;;;10248108;28;20076;-60
2023/06/30 14:45:14;;;;;;;1.92;1.48;;;;;;;;;;10250976;28;20077;-60
2023/06/30 14:50:12;;;;;;;3.88;2.33;;;;;;;;;;10248214;28;20091;-60
2023/06/30 14:55:11;;;;;;;4.68;1.55;;;;;;;;;;10248484;28;20103;-60
2023/06/30 15:00:10;;;;;;;2.67;1.70;;;;;;;;;;10247905;28;20466;-60
2023/06/30 15:05:09;;;;;;;1.75;1.63;;;;;;;;;;10247231;28;20080;-60
2023/06/30 15:10:07;;;;;;;1.70;1.60;;;;;;;;;;10248232;28;20075;-61
2023/06/30 15:15:08;;;;;;;6.10;2.40;;;;;;;;;;10247254;28;20152;-61
2023/06/30 15:20:07;;;;;;;3.55;1.58;;;;;;;;;;10249809;28;20073;-61
2023/06/30 15:25:05;;;;;;;4.60;2.25;;;;;;;;;;10253679;28;20065;-60
2023/06/30 15:30:06;;;;;;;1.65;1.55;;;;;;;;;;10256435;28;20077;-60
2023/06/30 15:35:06;;;;;;;2.63;1.50;;;;;;;;;;10253241;28;20084;-60
2023/06/30 15:40:04;;;;;;;2.05;1.80;;;;;;;;;;10253272;28;20089;-60
2023/06/30 15:45:03;;;;;;;5.28;2.90;;;;;;;;;;10252676;28;20069;-60
2023/06/30 15:50:01;;;;;;;7.35;2.10;;;;;;;;;;10253501;28;20514;-60
2023/06/30 15:55:08;;;;;;;5.35;3.28;;;;;;;;;;10253552;28;20092;-60
2023/06/30 16:00:07;;;;;;;6.75;1.80;;;;;;;;;;10252883;28;20069;-60
2023/06/30 16:05:14;;;;;;;2.15;1.73;;;;;;;;;;10254920;28;20076;-61
2023/06/30 16:10:14;;;;;;;2.55;2.10;;;;;;;;;;10249568;28;20069;-61
2023/06/30 16:15:12;;;;;;;2.78;2.50;;;;;;;;;;10253632;28;20077;-60
2023/06/30 16:20:10;;;;;;;4.70;2.80;;;;;;;;;;10253134;28;20073;-59
2023/06/30 16:25:09;;;;;;;3.80;2.17;;;;;;;;;;10253417;28;20065;-59
2023/06/30 16:30:22;;;;;;;3.55;2.33;;;;;;;;;;10254422;28;20081;-60
2023/06/30 16:35:24;;;;;;;3.08;1.65;;;;;;;;;;10254050;28;20088;-60
2023/06/30 16:40:22;;;;;;;3.50;2.92;;;;;;;;;;10252927;28;20096;-59
2023/06/30 16:45:22;;;;;;;3.30;2.80;;;;;;;;;;10252821;28;20076;-59
2023/06/30 16:50:20;;;;;;;5.95;2.83;;;;;;;;;;10252922;28;20068;-58
2023/06/30 16:55:18;;;;;;;26.65;16.83;;;;;;;;;;10253263;28;20080;-60
2023/06/30 17:00:17;;;;;;;44.60;29.15;;;;;;;;;;10246572;28;20068;-60
2023/06/30 17:05:17;;;;;;;16.85;12.85;;;;;;;;;;10250883;28;20088;-60
2023/06/30 17:10:15;;;;;;;11.52;7.13;;;;;;;;;;10252709;28;20072;-60
2023/06/30 17:15:14;;;;;;;17.80;13.00;;;;;;;;;;10250543;28;20168;-60
2023/06/30 17:20:12;;;;;;;25.70;22.50;;;;;;;;;;10251756;28;20064;-59
2023/06/30 17:25:12;;;;;;;32.88;19.05;;;;;;;;;;10250596;28;20459;-60
2023/06/30 17:30:10;;;;;;;17.67;8.93;;;;;;;;;;10251730;28;20071;-60
2023/06/30 17:35:09;;;;;;;20.35;7.93;;;;;;;;;;10250638;28;20091;-61
2023/06/30 17:40:08;;;;;;;16.98;5.25;;;;;;;;;;10248827;28;20536;-61
2023/06/30 17:45:08;;;;;;;12.82;5.03;;;;;;;;;;10248929;28;20069;-60
2023/06/30 17:50:07;;;;;;;9.32;7.88;;;;;;;;;;10249002;28;20088;-60
2023/06/30 17:55:05;;;;;;;16.65;14.77;;;;;;;;;;10249363;28;20111;-60
2023/06/30 18:00:04;;;;;;;26.15;21.20;;;;;;;;;;10251006;28;20594;-60
2023/06/30 18:05:10;;;;;;;14.98;12.70;;;;;;;;;;10258130;28;20091;-61
2023/06/30 18:10:12;;;;;;;7.60;5.53;;;;;;;;;;10247797;28;20544;-60
2023/06/30 18:15:11;;;;;;;23.70;9.57;;;;;;;;;;10250058;28;20442;-59
2023/06/30 18:20:11;;;;;;;32.42;13.18;;;;;;;;;;10248153;28;20073;-60
2023/06/30 18:25:09;;;;;;;11.43;5.75;;;;;;;;;;10249573;28;20089;-60
2023/06/30 18:30:08;;;;;;;9.75;4.78;;;;;;;;;;10248295;28;20479;-60
2023/06/30 18:35:07;;;;;;;6.07;2.92;;;;;;;;;;10244933;28;20065;-60
2023/06/30 18:40:08;;;;;;;4.75;2.97;;;;;;;;;;10248152;28;20496;-60
2023/06/30 18:45:07;;;;;;;9.07;5.50;;;;;;;;;;10247870;28;20556;-60
2023/06/30 18:50:06;;;;;;;7.07;3.65;;;;;;;;;;10248718;28;20077;-60
2023/06/30 18:55:05;;;;;;;6.03;2.70;;;;;;;;;;10248738;28;20077;-60
2023/06/30 19:00:05;;;;;;;6.72;2.47;;;;;;;;;;10256762;28;20088;-60
2023/06/30 19:05:03;;;;;;;3.65;2.97;;;;;;;;;;10250229;28;20538;-61
2023/06/30 19:10:01;;;;;;;3.30;3.00;;;;;;;;;;10255869;28;20072;-59
2023/06/30 19:15:00;;;;;;;3.33;2.95;;;;;;;;;;10255002;28;20068;-59
2023/06/30 19:19:59;;;;;;;4.45;2.53;;;;;;;;;;10253666;28;20065;-60
2023/06/30 19:24:58;;;;;;;4.70;4.30;;;;;;;;;;10251149;28;20072;-59
2023/06/30 19:29:56;;;;;;;7.45;3.53;;;;;;;;;;10253903;28;20485;-59
2023/06/30 19:34:55;;;;;;;4.25;3.13;;;;;;;;;;10255208;28;20072;-60
2023/06/30 19:39:54;;;;;;;3.55;3.22;;;;;;;;;;10255133;28;20183;-60
2023/06/30 19:44:52;;;;;;;3.97;3.00;;;;;;;;;;10254145;28;20064;-60
2023/06/30 19:49:51;;;;;;;2.40;2.20;;;;;;;;;;10254469;28;20103;-59
2023/06/30 19:54:49;;;;;;;3.95;2.28;;;;;;;;;;10254134;28;20522;-59
2023/06/30 19:59:49;;;;;;;5.53;2.58;;;;;;;;;;10253811;28;20083;-60
2023/06/30 20:04:47;;;;;;;6.18;2.20;;;;;;;;;;10253464;28;20076;-60
2023/06/30 20:09:45;;;;;;;5.63;2.40;;;;;;;;;;10254678;28;20052;-60
2023/06/30 20:14:44;;;;;;;4.65;2.35;;;;;;;;;;10254259;28;20061;-60
2023/06/30 20:19:43;;;;;;;9.15;2.70;;;;;;;;;;10254354;28;20064;-60
2023/06/30 20:24:42;;;;;;;4.32;2.65;;;;;;;;;;10254060;28;20064;-61
2023/06/30 20:29:40;;;;;;;7.90;3.10;;;;;;;;;;10253398;28;20071;-60
2023/06/30 20:34:38;;;;;;;6.13;2.75;;;;;;;;;;10252222;28;20467;-61
2023/06/30 20:39:40;;;;;;;6.78;2.70;;;;;;;;;;10252512;28;20483;-60
2023/06/30 20:44:38;;;;;;;5.38;3.15;;;;;;;;;;10253880;28;20076;-60
2023/06/30 20:49:36;;;;;;;3.60;2.53;;;;;;;;;;10252290;28;20085;-59
2023/06/30 20:54:34;;;;;;;10.10;3.22;;;;;;;;;;10251126;28;20087;-59
2023/06/30 20:59:34;;;;;;;7.90;2.90;;;;;;;;;;10250066;28;20073;-60
2023/06/30 21:04:32;;;;;;;7.93;2.70;;;;;;;;;;10250283;28;20076;-60
2023/06/30 21:09:30;;;;;;;5.07;2.38;;;;;;;;;;10253987;28;20073;-60
2023/06/30 21:14:29;;;;;;;4.30;3.58;;;;;;;;;;10252671;28;20069;-60
2023/06/30 21:19:28;;;;;;;4.35;2.28;;;;;;;;;;10251346;28;20069;-59
2023/06/30 21:24:27;;;;;;;3.90;2.38;;;;;;;;;;10252412;28;20068;-60
2023/06/30 21:29:25;;;;;;;3.75;3.25;;;;;;;;;;10246236;28;20102;-60
2023/06/30 21:34:23;;;;;;;6.43;2.78;;;;;;;;;;10250694;28;20575;-60
2023/06/30 21:39:23;;;;;;;8.98;3.28;;;;;;;;;;10251961;28;20095;-58
2023/06/30 21:44:21;;;;;;;6.70;3.75;;;;;;;;;;10250525;28;20069;-59
2023/06/30 21:49:19;;;;;;;3.88;2.92;;;;;;;;;;10249851;28;20175;-59
2023/06/30 21:54:17;;;;;;;3.55;2.45;;;;;;;;;;10247495;28;20081;-60
2023/06/30 21:59:34;;;;;;;4.00;2.63;;;;;;;;;;10256051;28;20527;-59
2023/06/30 22:04:32;;;;;;;4.55;2.65;;;;;;;;;;10249419;28;20538;-60
2023/06/30 22:09:31;;;;;;;7.45;2.70;;;;;;;;;;10248859;28;20336;-60
2023/06/30 22:14:29;;;;;;;3.55;2.60;;;;;;;;;;10249109;28;20072;-60
2023/06/30 22:19:28;;;;;;;3.35;2.92;;;;;;;;;;10250565;28;20077;-59
2023/06/30 22:24:27;;;;;;;4.10;2.33;;;;;;;;;;10244310;28;20072;-60
2023/06/30 22:29:25;;;;;;;4.57;3.00;;;;;;;;;;10259058;28;20458;-59
2023/06/30 22:34:24;;;;;;;3.90;2.30;;;;;;;;;;10256204;28;20080;-59
2023/06/30 22:39:24;;;;;;;2.97;2.67;;;;;;;;;;10260666;28;20069;-60
2023/06/30 22:44:22;;;;;;;6.60;2.83;;;;;;;;;;10256264;28;20065;-60
2023/06/30 22:49:20;;;;;;;3.10;2.80;;;;;;;;;;10253625;28;20481;-60
2023/06/30 22:54:18;;;;;;;4.40;2.42;;;;;;;;;;10256530;28;20470;-60
2023/06/30 22:59:18;;;;;;;2.88;2.50;;;;;;;;;;10259487;28;20069;-60
2023/06/30 23:04:16;;;;;;;2.95;2.33;;;;;;;;;;10256218;28;20483;-60
2023/06/30 23:09:14;;;;;;;2.40;2.20;;;;;;;;;;10256685;28;20065;-60
2023/06/30 23:14:13;;;;;;;4.57;2.28;;;;;;;;;;10256716;28;20511;-60
2023/06/30 23:19:12;;;;;;;3.33;2.60;;;;;;;;;;10254765;28;20075;-61
2023/06/30 23:24:11;;;;;;;2.40;2.10;;;;;;;;;;10255813;28;20087;-59
2023/06/30 23:29:09;;;;;;;5.22;2.45;;;;;;;;;;10256086;28;20068;-60
2023/06/30 23:34:08;;;;;;;3.17;2.55;;;;;;;;;;10257052;28;20075;-60
2023/06/30 23:39:07;;;;;;;4.85;2.47;;;;;;;;;;10255439;28;20069;-60
2023/06/30 23:44:05;;;;;;;6.32;2.20;;;;;;;;;;10255805;28;20091;-60
2023/06/30 23:49:03;;;;;;;2.53;2.30;;;;;;;;;;10254065;28;20077;-59
2023/06/30 23:54:02;;;;;;;3.50;2.38;;;;;;;;;;10254483;28;20087;-59
2023/06/30 23:59:01;;;;;;;2.80;2.60;;;;;;;;;;10254805;28;20079;-59
